createdAt,value
2017-04-23T00:00:35.824Z,0
2017-04-23T00:01:44.763Z,0
2017-04-23T00:02:53.710Z,0
2017-04-23T00:04:02.741Z,0
2017-04-23T00:05:11.689Z,0
2017-04-23T00:06:20.933Z,0
2017-04-23T00:07:29.894Z,0
2017-04-23T00:08:38.838Z,0
2017-04-23T00:09:47.785Z,0
2017-04-23T00:10:56.733Z,0
2017-04-23T00:12:05.979Z,0
2017-04-23T00:13:14.923Z,0
2017-04-23T00:14:23.954Z,0
2017-04-23T00:15:32.902Z,0
2017-04-23T00:16:42.175Z,0
2017-04-23T00:17:51.426Z,0
2017-04-23T00:19:00.386Z,0
2017-04-23T00:20:09.328Z,0
2017-04-23T00:21:18.371Z,0
2017-04-23T00:22:27.313Z,0
2017-04-23T00:23:36.560Z,0
2017-04-23T00:24:45.505Z,0
2017-04-23T00:25:54.454Z,0
2017-04-23T00:27:03.397Z,0
2017-04-23T00:28:12.354Z,0
2017-04-23T00:29:21.596Z,0
2017-04-23T00:30:31.190Z,0
2017-04-23T00:31:40.133Z,0
2017-04-23T00:32:49.176Z,0
2017-04-23T00:33:58.131Z,0
2017-04-23T00:35:07.326Z,0
2017-04-23T00:36:16.285Z,0
2017-04-23T00:37:25.320Z,0
2017-04-23T00:38:34.263Z,0
2017-04-23T00:39:43.208Z,0
2017-04-23T00:40:52.400Z,0
2017-04-23T00:42:01.349Z,0
2017-04-23T00:43:10.290Z,0
2017-04-23T00:44:19.240Z,0
2017-04-23T00:45:28.189Z,0
2017-04-23T00:46:37.383Z,0
2017-04-23T00:47:46.332Z,0
2017-04-23T00:48:55.276Z,0
2017-04-23T00:50:04.227Z,0
2017-04-23T00:51:13.500Z,0
2017-04-23T00:52:22.746Z,0
2017-04-23T00:53:31.691Z,0
2017-04-23T00:54:40.639Z,0
2017-04-23T00:55:49.582Z,0
2017-04-23T00:56:58.528Z,0
2017-04-23T00:58:07.863Z,0
2017-04-23T00:59:16.810Z,0
2017-04-23T01:00:25.755Z,0
2017-04-23T01:01:34.701Z,0
2017-04-23T01:02:43.980Z,0
2017-04-23T01:03:53.184Z,0
2017-04-23T01:05:02.129Z,0
2017-04-23T01:06:11.078Z,0
2017-04-23T01:07:20.347Z,0
2017-04-23T01:08:29.305Z,0
2017-04-23T01:09:38.830Z,0
2017-04-23T01:10:47.776Z,0
2017-04-23T01:11:56.724Z,0
2017-04-23T01:13:05.670Z,0
2017-04-23T01:14:14.631Z,0
2017-04-23T01:15:23.832Z,0
2017-04-23T01:16:32.867Z,0
2017-04-23T01:17:41.811Z,0
2017-04-23T01:18:50.940Z,0
2017-04-23T01:19:59.887Z,0
2017-04-23T01:21:09.136Z,0
2017-04-23T01:22:18.078Z,0
2017-04-23T01:23:27.031Z,0
2017-04-23T01:24:36.298Z,0
2017-04-23T01:25:45.246Z,0
2017-04-23T01:26:54.441Z,0
2017-04-23T01:28:03.392Z,0
2017-04-23T01:29:12.333Z,0
2017-04-23T01:30:21.279Z,0
2017-04-23T01:31:30.310Z,0
2017-04-23T01:32:39.512Z,0
2017-04-23T01:33:48.462Z,0
2017-04-23T01:34:57.418Z,0
2017-04-23T01:36:06.365Z,0
2017-04-23T01:37:15.314Z,0
2017-04-23T01:38:24.506Z,0
2017-04-23T01:39:33.451Z,0
2017-04-23T01:40:42.480Z,0
2017-04-23T01:41:51.427Z,0
2017-04-23T01:43:00.461Z,0
2017-04-23T01:44:09.748Z,0
2017-04-23T01:45:18.695Z,0
2017-04-23T01:46:27.637Z,0
2017-04-23T01:47:36.586Z,0
2017-04-23T01:48:45.548Z,0
2017-04-23T01:49:54.758Z,0
2017-04-23T01:51:03.798Z,0
2017-04-23T01:52:12.745Z,0
2017-04-23T01:53:21.693Z,0
2017-04-23T01:54:30.641Z,0
2017-04-23T01:55:39.841Z,0
2017-04-23T01:56:49.106Z,0
2017-04-23T01:57:58.057Z,0
2017-04-23T01:59:07.085Z,0
2017-04-23T02:00:16.117Z,0
2017-04-23T02:01:25.452Z,0
2017-04-23T02:02:34.724Z,0
2017-04-23T02:03:43.676Z,0
2017-04-23T02:04:52.645Z,0
2017-04-23T02:06:01.606Z,0
2017-04-23T02:07:10.856Z,0
2017-04-23T02:08:19.814Z,0
2017-04-23T02:09:28.757Z,0
2017-04-23T02:10:37.700Z,0
2017-04-23T02:11:46.644Z,0
2017-04-23T02:12:55.987Z,0
2017-04-23T02:14:04.939Z,0
2017-04-23T02:15:14.210Z,0
2017-04-23T02:16:23.238Z,0
2017-04-23T02:17:32.183Z,0
2017-04-23T02:18:41.766Z,0
2017-04-23T02:19:50.720Z,0
2017-04-23T02:20:59.666Z,0
2017-04-23T02:22:08.611Z,0
2017-04-23T02:23:17.563Z,0
2017-04-23T02:24:26.764Z,0
2017-04-23T02:25:35.709Z,0
2017-04-23T02:26:44.656Z,0
2017-04-23T02:27:53.606Z,0
2017-04-23T02:29:02.559Z,0
2017-04-23T02:30:11.756Z,0
2017-04-23T02:31:20.704Z,0
2017-04-23T02:32:29.651Z,0
2017-04-23T02:33:38.603Z,0
2017-04-23T02:34:47.639Z,0
2017-04-23T02:35:56.836Z,0
2017-04-23T02:37:05.786Z,0
2017-04-23T02:38:14.735Z,0
2017-04-23T02:39:23.687Z,0
2017-04-23T02:40:32.961Z,0
2017-04-23T02:41:42.155Z,0
2017-04-23T02:42:51.126Z,0
2017-04-23T02:44:00.164Z,0
2017-04-23T02:45:09.107Z,0
2017-04-23T02:46:18.052Z,0
2017-04-23T02:47:27.250Z,0
2017-04-23T02:48:36.201Z,0
2017-04-23T02:49:45.480Z,0
2017-04-23T02:50:54.515Z,0
2017-04-23T02:52:03.463Z,0
2017-04-23T02:53:12.655Z,0
2017-04-23T02:54:21.600Z,0
2017-04-23T02:55:30.556Z,0
2017-04-23T02:56:39.509Z,0
2017-04-23T02:57:48.464Z,0
2017-04-23T02:58:57.662Z,0
2017-04-23T03:00:06.611Z,0
2017-04-23T03:01:15.875Z,0
2017-04-23T03:02:24.822Z,0
2017-04-23T03:03:33.861Z,0
2017-04-23T03:04:43.064Z,0
2017-04-23T03:05:52.015Z,0
2017-04-23T03:07:00.963Z,0
2017-04-23T03:08:09.912Z,0
2017-04-23T03:09:18.859Z,0
2017-04-23T03:10:28.061Z,0
2017-04-23T03:11:37.118Z,0
2017-04-23T03:12:46.391Z,0
2017-04-23T03:13:55.342Z,0
2017-04-23T03:15:04.288Z,0
2017-04-23T03:16:13.480Z,0
2017-04-23T03:17:22.435Z,0
2017-04-23T03:18:31.481Z,0
2017-04-23T03:19:40.521Z,0
2017-04-23T03:20:49.471Z,0
2017-04-23T03:21:58.674Z,0
2017-04-23T03:23:07.620Z,4
2017-04-23T03:24:16.568Z,4
2017-04-23T03:25:25.518Z,0
2017-04-23T03:26:34.549Z,4
2017-04-23T03:27:43.745Z,4
2017-04-23T03:28:52.693Z,0
2017-04-23T03:30:01.640Z,4
2017-04-23T03:31:10.597Z,4
2017-04-23T03:32:19.540Z,8
2017-04-23T03:33:28.739Z,8
2017-04-23T03:34:37.690Z,8
2017-04-23T03:35:46.640Z,8
2017-04-23T03:36:55.586Z,12
2017-04-23T03:38:04.532Z,12
2017-04-23T03:39:13.728Z,12
2017-04-23T03:40:22.680Z,16
2017-04-23T03:41:31.715Z,16
2017-04-23T03:42:40.662Z,16
2017-04-23T03:43:49.705Z,16
2017-04-23T03:44:58.986Z,24
2017-04-23T03:46:07.931Z,24
2017-04-23T03:47:16.878Z,32
2017-04-23T03:48:25.829Z,40
2017-04-23T03:49:34.780Z,40
2017-04-23T03:50:44.413Z,48
2017-04-23T03:51:53.356Z,48
2017-04-23T03:53:02.306Z,56
2017-04-23T03:54:11.266Z,56
2017-04-23T03:55:20.214Z,56
2017-04-23T03:56:29.468Z,56
2017-04-23T03:57:38.503Z,68
2017-04-23T03:58:47.455Z,80
2017-04-23T03:59:56.404Z,88
2017-04-23T04:01:05.352Z,92
2017-04-23T04:02:14.721Z,92
2017-04-23T04:03:23.669Z,104
2017-04-23T04:04:32.619Z,88
2017-04-23T04:05:41.566Z,88
2017-04-23T04:06:50.839Z,96
2017-04-23T04:08:00.085Z,108
2017-04-23T04:09:09.025Z,120
2017-04-23T04:10:17.975Z,136
2017-04-23T04:11:26.928Z,120
2017-04-23T04:12:35.880Z,148
2017-04-23T04:13:45.088Z,140
2017-04-23T04:14:54.045Z,144
2017-04-23T04:16:02.997Z,152
2017-04-23T04:17:11.947Z,152
2017-04-23T04:18:20.895Z,156
2017-04-23T04:19:30.417Z,152
2017-04-23T04:20:39.691Z,172
2017-04-23T04:21:48.633Z,248
2017-04-23T04:22:57.900Z,256
2017-04-23T04:24:06.848Z,220
2017-04-23T04:25:16.095Z,228
2017-04-23T04:26:25.362Z,236
2017-04-23T04:27:34.637Z,232
2017-04-23T04:28:43.917Z,208
2017-04-23T04:29:52.874Z,224
2017-04-23T04:31:02.167Z,232
2017-04-23T04:32:11.204Z,228
2017-04-23T04:33:20.153Z,280
2017-04-23T04:34:29.099Z,308
2017-04-23T04:35:38.047Z,328
2017-04-23T04:36:47.246Z,408
2017-04-23T04:37:56.195Z,392
2017-04-23T04:39:05.138Z,468
2017-04-23T04:40:14.090Z,504
2017-04-23T04:41:23.034Z,528
2017-04-23T04:42:32.303Z,508
2017-04-23T04:43:41.247Z,504
2017-04-23T04:44:50.366Z,468
2017-04-23T04:45:59.317Z,500
2017-04-23T04:47:08.302Z,452
2017-04-23T04:48:17.496Z,404
2017-04-23T04:49:26.444Z,348
2017-04-23T04:50:35.386Z,284
2017-04-23T04:51:44.338Z,312
2017-04-23T04:52:53.285Z,376
2017-04-23T04:54:02.476Z,496
2017-04-23T04:55:11.421Z,624
2017-04-23T04:56:20.364Z,664
2017-04-23T04:57:29.309Z,688
2017-04-23T04:58:38.347Z,728
2017-04-23T04:59:47.772Z,728
2017-04-23T05:00:56.716Z,620
2017-04-23T05:02:05.750Z,704
2017-04-23T05:03:14.795Z,672
2017-04-23T05:04:23.750Z,588
2017-04-23T05:05:32.944Z,556
2017-04-23T05:06:41.889Z,476
2017-04-23T05:07:50.838Z,524
2017-04-23T05:08:59.783Z,644
2017-04-23T05:10:08.729Z,460
2017-04-23T05:11:17.923Z,412
2017-04-23T05:12:26.874Z,448
2017-04-23T05:13:35.831Z,580
2017-04-23T05:14:44.784Z,856
2017-04-23T05:15:53.740Z,752
2017-04-23T05:17:02.993Z,572
2017-04-23T05:18:12.028Z,712
2017-04-23T05:19:21.066Z,928
2017-04-23T05:20:30.028Z,824
2017-04-23T05:21:38.978Z,816
2017-04-23T05:22:48.196Z,804
2017-04-23T05:23:57.148Z,776
2017-04-23T05:25:06.107Z,1072
2017-04-23T05:26:15.057Z,1248
2017-04-23T05:27:24.013Z,1120
2017-04-23T05:28:33.266Z,1348
2017-04-23T05:29:42.219Z,1332
2017-04-23T05:30:51.171Z,1304
2017-04-23T05:32:00.120Z,1320
2017-04-23T05:33:09.150Z,1292
2017-04-23T05:34:18.357Z,1400
2017-04-23T05:35:27.389Z,1116
2017-04-23T05:36:36.333Z,1144
2017-04-23T05:37:45.610Z,980
2017-04-23T05:38:54.560Z,1160
2017-04-23T05:40:03.761Z,1176
2017-04-23T05:41:12.708Z,1196
2017-04-23T05:42:21.655Z,1396
2017-04-23T05:43:30.607Z,1584
2017-04-23T05:44:39.644Z,1344
2017-04-23T05:45:48.933Z,1564
2017-04-23T05:46:57.973Z,1736
2017-04-23T05:48:06.923Z,2044
2017-04-23T05:49:15.968Z,1908
2017-04-23T05:50:24.933Z,1484
2017-04-23T05:51:34.132Z,1532
2017-04-23T05:52:43.077Z,1600
2017-04-23T05:53:52.021Z,1856
2017-04-23T05:55:00.974Z,1176
2017-04-23T05:56:09.922Z,1160
2017-04-23T05:57:19.208Z,712
2017-04-23T05:58:28.495Z,524
2017-04-23T05:59:37.448Z,660
2017-04-23T06:00:46.400Z,620
2017-04-23T06:01:55.347Z,616
2017-04-23T06:03:04.592Z,412
2017-04-23T06:04:13.538Z,424
2017-04-23T06:05:22.485Z,636
2017-04-23T06:06:31.430Z,988
2017-04-23T06:07:40.380Z,952
2017-04-23T06:08:49.738Z,952
2017-04-23T06:09:58.775Z,1164
2017-04-23T06:11:07.719Z,1176
2017-04-23T06:12:16.669Z,1576
2017-04-23T06:13:25.943Z,1800
2017-04-23T06:14:35.141Z,1692
2017-04-23T06:15:44.177Z,1760
2017-04-23T06:16:53.125Z,1876
2017-04-23T06:18:02.079Z,2020
2017-04-23T06:19:11.026Z,2256
2017-04-23T06:20:20.313Z,2136
2017-04-23T06:21:29.257Z,1732
2017-04-23T06:22:38.530Z,1984
2017-04-23T06:23:47.563Z,1796
2017-04-23T06:24:56.920Z,1852
2017-04-23T06:26:06.172Z,1896
2017-04-23T06:27:15.439Z,1976
2017-04-23T06:28:24.481Z,2056
2017-04-23T06:29:33.521Z,2120
2017-04-23T06:30:42.468Z,1708
2017-04-23T06:31:51.718Z,1428
2017-04-23T06:33:00.662Z,1412
2017-04-23T06:34:09.609Z,1732
2017-04-23T06:35:18.559Z,1776
2017-04-23T06:36:27.510Z,1200
2017-04-23T06:37:36.844Z,1784
2017-04-23T06:38:45.796Z,2320
2017-04-23T06:39:54.743Z,1868
2017-04-23T06:41:04.012Z,1660
2017-04-23T06:42:12.956Z,1620
2017-04-23T06:43:22.155Z,1660
2017-04-23T06:44:31.189Z,1520
2017-04-23T06:45:40.222Z,1912
2017-04-23T06:46:49.172Z,1512
2017-04-23T06:47:58.125Z,1072
2017-04-23T06:49:07.367Z,1108
2017-04-23T06:50:16.320Z,1132
2017-04-23T06:51:25.265Z,864
2017-04-23T06:52:34.209Z,1356
2017-04-23T06:53:43.247Z,1080
2017-04-23T06:54:52.450Z,652
2017-04-23T06:56:01.394Z,776
2017-04-23T06:57:10.340Z,668
2017-04-23T06:58:19.290Z,1044
2017-04-23T06:59:28.262Z,1028
2017-04-23T07:00:37.462Z,1212
2017-04-23T07:01:46.726Z,2096
2017-04-23T07:02:55.678Z,2328
2017-04-23T07:04:04.637Z,2328
2017-04-23T07:05:13.760Z,2388
2017-04-23T07:06:22.965Z,2644
2017-04-23T07:07:31.921Z,2768
2017-04-23T07:08:40.960Z,2620
2017-04-23T07:09:49.911Z,2172
2017-04-23T07:10:59.183Z,3052
2017-04-23T07:12:08.384Z,2656
2017-04-23T07:13:17.336Z,2572
2017-04-23T07:14:26.393Z,2948
2017-04-23T07:15:35.345Z,3256
2017-04-23T07:16:44.290Z,2948
2017-04-23T07:17:53.543Z,2924
2017-04-23T07:19:02.499Z,2988
2017-04-23T07:20:11.774Z,2960
2017-04-23T07:21:20.810Z,2944
2017-04-23T07:22:29.755Z,2844
2017-04-23T07:23:39.013Z,3936
2017-04-23T07:24:47.982Z,3272
2017-04-23T07:25:56.936Z,4000
2017-04-23T07:27:05.892Z,3608
2017-04-23T07:28:14.839Z,2984
2017-04-23T07:29:24.045Z,3452
2017-04-23T07:30:32.996Z,4008
2017-04-23T07:31:42.025Z,3816
2017-04-23T07:32:50.980Z,3872
2017-04-23T07:33:59.931Z,3528
2017-04-23T07:35:09.177Z,4488
2017-04-23T07:36:18.127Z,5672
2017-04-23T07:37:27.079Z,5316
2017-04-23T07:38:36.025Z,5500
2017-04-23T07:39:44.981Z,6688
2017-04-23T07:40:54.184Z,7424
2017-04-23T07:42:03.144Z,5792
2017-04-23T07:43:12.101Z,6656
2017-04-23T07:44:21.146Z,6072
2017-04-23T07:45:30.095Z,7184
2017-04-23T07:46:39.628Z,7096
2017-04-23T07:47:48.586Z,7248
2017-04-23T07:48:57.545Z,6912
2017-04-23T07:50:06.594Z,6088
2017-04-23T07:51:15.628Z,5880
2017-04-23T07:52:24.832Z,5916
2017-04-23T07:53:33.791Z,6556
2017-04-23T07:54:42.743Z,6148
2017-04-23T07:55:51.789Z,5708
2017-04-23T07:57:00.869Z,4752
2017-04-23T07:58:10.076Z,4372
2017-04-23T07:59:19.031Z,3756
2017-04-23T08:00:27.995Z,2796
2017-04-23T08:01:36.951Z,2764
2017-04-23T08:02:45.990Z,2144
2017-04-23T08:03:55.189Z,2284
2017-04-23T08:05:04.145Z,1548
2017-04-23T08:06:13.183Z,1412
2017-04-23T08:07:22.131Z,3576
2017-04-23T08:08:31.082Z,3452
2017-04-23T08:09:40.374Z,6020
2017-04-23T08:10:49.411Z,7412
2017-04-23T08:11:58.458Z,6124
2017-04-23T08:13:07.495Z,8976
2017-04-23T08:14:16.447Z,8772
2017-04-23T08:15:25.652Z,7464
2017-04-23T08:16:34.601Z,6748
2017-04-23T08:17:43.883Z,6844
2017-04-23T08:18:52.832Z,7200
2017-04-23T08:20:01.881Z,8048
2017-04-23T08:21:11.080Z,6924
2017-04-23T08:22:20.027Z,5992
2017-04-23T08:23:28.976Z,6776
2017-04-23T08:24:37.948Z,5616
2017-04-23T08:25:46.894Z,5896
2017-04-23T08:26:56.099Z,6556
2017-04-23T08:28:05.051Z,7064
2017-04-23T08:29:14.005Z,6556
2017-04-23T08:30:22.956Z,5708
2017-04-23T08:31:31.996Z,6580
2017-04-23T08:32:41.199Z,6948
2017-04-23T08:33:50.243Z,5168
2017-04-23T08:34:59.200Z,5968
2017-04-23T08:36:08.475Z,8564
2017-04-23T08:37:17.427Z,5872
2017-04-23T08:38:26.683Z,6340
2017-04-23T08:39:35.635Z,4896
2017-04-23T08:40:44.585Z,5540
2017-04-23T08:41:53.535Z,5916
2017-04-23T08:43:02.490Z,6604
2017-04-23T08:44:11.686Z,4948
2017-04-23T08:45:20.642Z,3808
2017-04-23T08:46:29.607Z,2864
2017-04-23T08:47:38.562Z,4020
2017-04-23T08:48:47.511Z,5224
2017-04-23T08:49:56.782Z,5388
2017-04-23T08:51:05.736Z,4620
2017-04-23T08:52:14.709Z,5608
2017-04-23T08:53:23.754Z,4760
2017-04-23T08:54:32.707Z,2452
2017-04-23T08:55:41.996Z,1304
2017-04-23T08:56:50.941Z,1252
2017-04-23T08:57:59.895Z,1276
2017-04-23T08:59:08.943Z,2872
2017-04-23T09:00:17.894Z,3988
2017-04-23T09:01:27.151Z,6596
2017-04-23T09:02:36.101Z,5992
2017-04-23T09:03:45.055Z,4220
2017-04-23T09:04:54.013Z,7012
2017-04-23T09:06:02.964Z,6756
2017-04-23T09:07:12.213Z,4440
2017-04-23T09:08:21.163Z,6112
2017-04-23T09:09:30.110Z,5704
2017-04-23T09:10:39.067Z,5816
2017-04-23T09:11:48.026Z,6272
2017-04-23T09:12:57.234Z,5688
2017-04-23T09:14:06.190Z,4100
2017-04-23T09:15:15.141Z,6332
2017-04-23T09:16:24.090Z,8360
2017-04-23T09:17:33.132Z,8212
2017-04-23T09:18:42.343Z,7504
2017-04-23T09:19:51.384Z,6512
2017-04-23T09:21:00.421Z,6508
2017-04-23T09:22:09.386Z,5248
2017-04-23T09:23:18.338Z,3768
2017-04-23T09:24:27.536Z,4748
2017-04-23T09:25:36.487Z,5648
2017-04-23T09:26:45.445Z,7440
2017-04-23T09:27:54.395Z,8144
2017-04-23T09:29:03.669Z,6876
2017-04-23T09:30:13.203Z,7756
2017-04-23T09:31:22.245Z,7328
2017-04-23T09:32:31.197Z,2108
2017-04-23T09:33:40.157Z,1280
2017-04-23T09:34:49.114Z,1452
2017-04-23T09:35:58.320Z,1548
2017-04-23T09:37:07.600Z,2140
2017-04-23T09:38:16.547Z,2924
2017-04-23T09:39:25.502Z,3180
2017-04-23T09:40:34.460Z,3400
2017-04-23T09:41:43.713Z,4072
2017-04-23T09:42:53.010Z,4584
2017-04-23T09:44:01.960Z,4140
2017-04-23T09:45:10.909Z,4692
2017-04-23T09:46:19.858Z,5300
2017-04-23T09:47:29.060Z,6528
2017-04-23T09:48:38.115Z,6992
2017-04-23T09:49:47.067Z,6096
2017-04-23T09:50:56.015Z,4704
2017-04-23T09:52:04.964Z,3912
2017-04-23T09:53:14.167Z,3156
2017-04-23T09:54:23.116Z,2708
2017-04-23T09:55:32.068Z,2544
2017-04-23T09:56:41.021Z,3124
2017-04-23T09:57:49.974Z,5932
2017-04-23T09:58:59.177Z,7208
2017-04-23T10:00:08.133Z,5648
2017-04-23T10:01:17.176Z,7204
2017-04-23T10:02:26.131Z,8404
2017-04-23T10:03:35.088Z,9940
2017-04-23T10:04:44.620Z,9168
2017-04-23T10:05:53.896Z,7840
2017-04-23T10:07:02.852Z,4748
2017-04-23T10:08:11.801Z,4380
2017-04-23T10:09:21.484Z,3244
2017-04-23T10:10:30.691Z,4580
2017-04-23T10:11:39.639Z,5504
2017-04-23T10:12:48.597Z,5148
2017-04-23T10:13:57.546Z,4068
2017-04-23T10:15:06.837Z,2632
2017-04-23T10:16:16.033Z,3120
2017-04-23T10:17:24.984Z,2152
2017-04-23T10:18:33.944Z,1436
2017-04-23T10:19:42.899Z,1092
2017-04-23T10:20:51.862Z,1140
2017-04-23T10:22:01.058Z,1676
2017-04-23T10:23:10.010Z,2228
2017-04-23T10:24:18.994Z,3412
2017-04-23T10:25:27.955Z,4604
2017-04-23T10:26:36.903Z,5328
2017-04-23T10:27:46.430Z,5616
2017-04-23T10:28:55.705Z,5628
2017-04-23T10:30:04.658Z,6480
2017-04-23T10:31:13.607Z,5556
2017-04-23T10:32:22.561Z,4448
2017-04-23T10:33:31.761Z,4444
2017-04-23T10:34:40.711Z,5020
2017-04-23T10:35:49.673Z,5756
2017-04-23T10:36:58.633Z,5736
2017-04-23T10:38:07.578Z,6456
2017-04-23T10:39:16.777Z,4248
2017-04-23T10:40:25.734Z,4324
2017-04-23T10:41:34.687Z,3472
2017-04-23T10:42:43.642Z,3696
2017-04-23T10:43:52.588Z,3744
2017-04-23T10:45:01.852Z,3144
2017-04-23T10:46:10.802Z,3456
2017-04-23T10:47:19.848Z,3984
2017-04-23T10:48:28.799Z,3944
2017-04-23T10:49:37.751Z,4600
2017-04-23T10:50:46.965Z,4752
2017-04-23T10:51:55.916Z,6464
2017-04-23T10:53:04.866Z,7588
2017-04-23T10:54:13.810Z,6376
2017-04-23T10:55:22.765Z,4628
2017-04-23T10:56:31.966Z,3324
2017-04-23T10:57:40.912Z,2516
2017-04-23T10:58:49.866Z,3308
2017-04-23T10:59:58.850Z,5120
2017-04-23T11:01:07.800Z,5468
2017-04-23T11:02:17.056Z,4512
2017-04-23T11:03:26.424Z,2412
2017-04-23T11:04:35.369Z,1976
2017-04-23T11:05:44.327Z,3076
2017-04-23T11:06:53.284Z,3288
2017-04-23T11:08:02.571Z,3568
2017-04-23T11:09:11.517Z,4572
2017-04-23T11:10:20.466Z,3792
2017-04-23T11:11:29.424Z,1312
2017-04-23T11:12:38.373Z,1200
2017-04-23T11:13:47.577Z,1520
2017-04-23T11:14:56.529Z,1804
2017-04-23T11:16:05.484Z,2088
2017-04-23T11:17:15.165Z,2360
2017-04-23T11:18:24.115Z,2900
2017-04-23T11:19:33.317Z,3308
2017-04-23T11:20:42.268Z,4352
2017-04-23T11:21:51.549Z,6092
2017-04-23T11:23:00.505Z,6632
2017-04-23T11:24:09.465Z,6408
2017-04-23T11:25:18.664Z,4908
2017-04-23T11:26:27.616Z,5776
2017-04-23T11:27:36.563Z,6132
2017-04-23T11:28:45.508Z,4832
2017-04-23T11:29:54.460Z,4468
2017-04-23T11:31:03.661Z,3732
2017-04-23T11:32:12.625Z,3324
2017-04-23T11:33:21.577Z,2988
2017-04-23T11:34:30.530Z,2812
2017-04-23T11:35:39.490Z,3404
2017-04-23T11:36:48.791Z,4944
2017-04-23T11:37:57.741Z,7664
2017-04-23T11:39:06.685Z,8856
2017-04-23T11:40:15.802Z,8148
2017-04-23T11:41:24.752Z,7956
2017-04-23T11:42:33.965Z,8060
2017-04-23T11:43:42.944Z,7252
2017-04-23T11:44:51.899Z,7088
2017-04-23T11:46:00.849Z,6300
2017-04-23T11:47:09.798Z,6344
2017-04-23T11:48:19.000Z,5364
2017-04-23T11:49:27.956Z,5068
2017-04-23T11:50:36.908Z,5408
2017-04-23T11:51:45.867Z,5892
2017-04-23T11:52:54.819Z,7096
2017-04-23T11:54:04.022Z,8088
2017-04-23T11:55:12.974Z,7056
2017-04-23T11:56:21.926Z,7088
2017-04-23T11:57:30.875Z,7316
2017-04-23T11:58:39.844Z,5852
2017-04-23T11:59:49.366Z,6252
2017-04-23T12:00:58.319Z,6212
2017-04-23T12:02:07.270Z,5956
2017-04-23T12:03:16.221Z,5784
2017-04-23T12:04:25.254Z,5332
2017-04-23T12:05:34.455Z,4208
2017-04-23T12:06:43.444Z,3160
2017-04-23T12:07:52.394Z,2856
2017-04-23T12:09:01.346Z,4144
2017-04-23T12:10:10.296Z,3584
2017-04-23T12:11:19.505Z,4216
2017-04-23T12:12:28.462Z,3504
2017-04-23T12:13:37.411Z,3088
2017-04-23T12:14:46.771Z,2732
2017-04-23T12:15:55.715Z,3140
2017-04-23T12:17:04.971Z,3616
2017-04-23T12:18:14.260Z,4084
2017-04-23T12:19:23.211Z,4196
2017-04-23T12:20:32.171Z,3612
2017-04-23T12:21:41.121Z,2528
2017-04-23T12:22:50.317Z,2516
2017-04-23T12:23:59.267Z,2876
2017-04-23T12:25:08.224Z,3352
2017-04-23T12:26:17.184Z,3168
2017-04-23T12:27:26.136Z,2220
2017-04-23T12:28:35.339Z,2120
2017-04-23T12:29:44.829Z,2196
2017-04-23T12:30:54.115Z,2432
2017-04-23T12:32:03.063Z,2644
2017-04-23T12:33:12.010Z,3212
2017-04-23T12:34:21.339Z,3340
2017-04-23T12:35:30.366Z,3244
2017-04-23T12:36:39.355Z,3724
2017-04-23T12:37:48.412Z,3996
2017-04-23T12:38:57.456Z,3812
2017-04-23T12:40:07.084Z,4660
2017-04-23T12:41:16.219Z,4456
2017-04-23T12:42:25.239Z,3280
2017-04-23T12:43:34.329Z,2916
2017-04-23T12:44:43.321Z,3228
2017-04-23T12:45:52.630Z,2960
2017-04-23T12:47:01.819Z,3100
2017-04-23T12:48:10.988Z,3608
2017-04-23T12:49:20.104Z,4352
2017-04-23T12:50:29.297Z,3852
2017-04-23T12:51:38.728Z,2444
2017-04-23T12:52:47.792Z,1924
2017-04-23T12:53:56.816Z,1896
2017-04-23T12:55:05.962Z,1924
2017-04-23T12:56:15.092Z,1908
2017-04-23T12:57:24.522Z,1872
2017-04-23T12:58:33.617Z,1968
2017-04-23T12:59:42.681Z,2004
2017-04-23T13:00:51.755Z,2000
2017-04-23T13:02:00.779Z,1876
2017-04-23T13:03:10.053Z,1900
2017-04-23T13:04:19.132Z,1920
2017-04-23T13:05:28.235Z,1936
2017-04-23T13:06:37.263Z,1948
2017-04-23T13:07:46.324Z,1980
2017-04-23T13:08:55.647Z,1988
2017-04-23T13:10:04.862Z,1968
2017-04-23T13:11:13.911Z,2972
2017-04-23T13:12:22.986Z,2660
2017-04-23T13:13:31.989Z,4316
2017-04-23T13:14:41.272Z,4456
2017-04-23T13:15:50.369Z,3200
2017-04-23T13:16:59.477Z,2420
2017-04-23T13:18:08.590Z,2652
2017-04-23T13:19:17.639Z,2928
2017-04-23T13:20:27.304Z,3260
2017-04-23T13:21:36.397Z,3624
2017-04-23T13:22:45.703Z,4696
2017-04-23T13:23:54.832Z,4704
2017-04-23T13:25:03.908Z,2708
2017-04-23T13:26:13.411Z,2712
2017-04-23T13:27:22.418Z,3324
2017-04-23T13:28:31.488Z,3132
2017-04-23T13:29:40.594Z,2936
2017-04-23T13:30:49.761Z,2144
2017-04-23T13:31:59.040Z,1724
2017-04-23T13:33:08.120Z,2780
2017-04-23T13:34:17.401Z,2280
2017-04-23T13:35:26.559Z,2084
2017-04-23T13:36:35.578Z,2580
2017-04-23T13:37:44.853Z,3304
2017-04-23T13:38:54.367Z,3876
2017-04-23T13:40:03.401Z,3716
2017-04-23T13:41:12.417Z,4292
2017-04-23T13:42:21.691Z,4384
2017-04-23T13:43:30.988Z,3248
2017-04-23T13:44:40.107Z,2252
2017-04-23T13:45:49.524Z,2164
2017-04-23T13:46:58.544Z,2032
2017-04-23T13:48:07.757Z,1216
2017-04-23T13:49:17.146Z,784
2017-04-23T13:50:26.197Z,1044
2017-04-23T13:51:35.186Z,1352
2017-04-23T13:52:44.315Z,1652
2017-04-23T13:53:53.449Z,1540
2017-04-23T13:55:02.875Z,1524
2017-04-23T13:56:12.040Z,1940
2017-04-23T13:57:21.290Z,2840
2017-04-23T13:58:30.313Z,3276
2017-04-23T13:59:39.453Z,2776
2017-04-23T14:00:48.757Z,2248
2017-04-23T14:01:57.803Z,2620
2017-04-23T14:03:06.988Z,2984
2017-04-23T14:04:16.232Z,3548
2017-04-23T14:05:25.939Z,4516
2017-04-23T14:06:35.303Z,4128
2017-04-23T14:07:44.533Z,3204
2017-04-23T14:08:54.056Z,2952
2017-04-23T14:10:03.668Z,2136
2017-04-23T14:11:13.990Z,2344
2017-04-23T14:12:24.435Z,2412
2017-04-23T14:13:33.810Z,2776
2017-04-23T14:14:43.647Z,3120
2017-04-23T14:15:53.049Z,3276
2017-04-23T14:17:02.270Z,3232
2017-04-23T14:18:12.380Z,3064
2017-04-23T14:19:22.331Z,3236
2017-04-23T14:20:31.904Z,4136
2017-04-23T14:21:41.344Z,4552
2017-04-23T14:22:50.374Z,4580
2017-04-23T14:23:59.738Z,5212
2017-04-23T14:25:08.878Z,5780
2017-04-23T14:26:17.918Z,5800
2017-04-23T14:27:26.902Z,4796
2017-04-23T14:28:35.973Z,4068
2017-04-23T14:29:45.263Z,3156
2017-04-23T14:30:54.267Z,4588
2017-04-23T14:32:03.277Z,3760
2017-04-23T14:33:12.291Z,1732
2017-04-23T14:34:21.285Z,1628
2017-04-23T14:35:30.567Z,1628
2017-04-23T14:36:39.565Z,2280
2017-04-23T14:37:48.590Z,1428
2017-04-23T14:38:57.606Z,1124
2017-04-23T14:40:06.653Z,2060
2017-04-23T14:41:15.890Z,2256
2017-04-23T14:42:24.866Z,2204
2017-04-23T14:43:33.849Z,2324
2017-04-23T14:44:42.840Z,2560
2017-04-23T14:45:51.820Z,2204
2017-04-23T14:47:01.074Z,2020
2017-04-23T14:48:10.462Z,1980
2017-04-23T14:49:19.509Z,1964
2017-04-23T14:50:28.610Z,1948
2017-04-23T14:51:37.653Z,1976
2017-04-23T14:52:46.874Z,2068
2017-04-23T14:53:55.949Z,1852
2017-04-23T14:55:05.343Z,1624
2017-04-23T14:56:14.338Z,1908
2017-04-23T14:57:23.318Z,1628
2017-04-23T14:58:32.621Z,1728
2017-04-23T14:59:41.722Z,2080
2017-04-23T15:00:50.703Z,1584
2017-04-23T15:01:59.678Z,1280
2017-04-23T15:03:08.729Z,1268
2017-04-23T15:04:17.937Z,1476
2017-04-23T15:05:26.889Z,1568
2017-04-23T15:06:35.858Z,1604
2017-04-23T15:07:44.843Z,1496
2017-04-23T15:08:54.154Z,1508
2017-04-23T15:10:03.478Z,1500
2017-04-23T15:11:12.472Z,1668
2017-04-23T15:12:21.526Z,1688
2017-04-23T15:13:30.514Z,1504
2017-04-23T15:14:39.505Z,1792
2017-04-23T15:15:48.768Z,2316
2017-04-23T15:16:57.728Z,2804
2017-04-23T15:18:06.771Z,2776
2017-04-23T15:19:15.823Z,2532
2017-04-23T15:20:24.898Z,2864
2017-04-23T15:21:34.156Z,2428
2017-04-23T15:22:43.451Z,2200
2017-04-23T15:23:52.530Z,1708
2017-04-23T15:25:01.495Z,1684
2017-04-23T15:26:10.458Z,1352
2017-04-23T15:27:19.672Z,1252
2017-04-23T15:28:28.636Z,1408
2017-04-23T15:29:37.625Z,1388
2017-04-23T15:30:46.592Z,1080
2017-04-23T15:31:55.575Z,1276
2017-04-23T15:33:04.803Z,1580
2017-04-23T15:34:13.770Z,1664
2017-04-23T15:35:22.724Z,1544
2017-04-23T15:36:31.684Z,1412
2017-04-23T15:37:40.637Z,1304
2017-04-23T15:38:49.863Z,1764
2017-04-23T15:39:58.866Z,1848
2017-04-23T15:41:07.827Z,2068
2017-04-23T15:42:16.784Z,1584
2017-04-23T15:43:25.828Z,1392
2017-04-23T15:44:35.038Z,2036
2017-04-23T15:45:44.078Z,1964